Time;durP1;ratioP1;P1;durP2;ratioP2;P2;SDS_P1;SDS_P2;PMS_P1;PMS_P2;Temp;Humidity;BMP_temperature;BMP_pressure;BME280_temperature;BME280_humidity;BME280_pressure;Samples;Min_cycle;Max_cycle;Signal;HPM_P1;HPM_P2
2023/08/02 00:00:02;;;;;;;6.00;2.70;;;;;;;16.43;100.00;99409.31;4990565;28;20209;-76
2023/08/02 00:02:29;;;;;;;6.37;2.67;;;;;;;16.46;100.00;99406.56;4991483;28;20227;-76
2023/08/02 00:04:55;;;;;;;8.53;2.97;;;;;;;16.52;100.00;99415.28;4990784;28;20295;-75
2023/08/02 00:07:22;;;;;;;6.93;2.70;;;;;;;16.49;100.00;99411.81;4973850;28;20331;-76
2023/08/02 00:09:48;;;;;;;8.50;2.80;;;;;;;16.53;100.00;99418.84;4991391;28;20217;-75
2023/08/02 00:12:14;;;;;;;4.67;2.40;;;;;;;16.55;100.00;99419.69;4990143;28;20223;-75
2023/08/02 00:14:41;;;;;;;5.00;2.83;;;;;;;16.55;100.00;99409.88;4991545;28;20208;-75
2023/08/02 00:17:08;;;;;;;5.20;2.37;;;;;;;16.52;100.00;99409.94;4992188;28;20201;-75
2023/08/02 00:19:36;;;;;;;5.50;2.50;;;;;;;16.34;100.00;99396.16;4990520;28;20205;-76
2023/08/02 00:22:02;;;;;;;4.93;2.73;;;;;;;16.20;100.00;99384.06;4988823;28;20810;-77
2023/08/02 00:24:29;;;;;;;6.03;3.37;;;;;;;16.08;100.00;99384.38;4979709;28;20704;-76
2023/08/02 00:26:55;;;;;;;4.50;2.60;;;;;;;15.97;100.00;99389.97;4975252;28;20204;-76
2023/08/02 00:29:21;;;;;;;6.37;3.20;;;;;;;15.86;100.00;99376.00;4969375;28;20235;-76
2023/08/02 00:31:48;;;;;;;6.77;3.17;;;;;;;15.77;100.00;99376.22;4990729;28;20739;-76
2023/08/02 00:34:14;;;;;;;6.50;3.00;;;;;;;15.74;100.00;99375.44;4990387;28;20590;-76
2023/08/02 00:36:40;;;;;;;5.20;3.23;;;;;;;15.68;100.00;99362.22;4972986;28;20204;-75
2023/08/02 00:39:07;;;;;;;7.70;3.30;;;;;;;15.62;100.00;99373.94;4993566;28;20284;-75
2023/08/02 00:41:34;;;;;;;6.57;3.53;;;;;;;15.60;100.00;99371.25;4990435;28;20229;-75
2023/08/02 00:44:00;;;;;;;6.40;3.47;;;;;;;15.62;100.00;99377.47;4991120;28;20254;-75
2023/08/02 00:46:27;;;;;;;8.53;3.87;;;;;;;15.67;100.00;99369.34;4991283;28;20208;-75
2023/08/02 00:49:11;;;;;;;6.50;3.50;;;;;;;15.57;100.00;99359.75;4981812;28;20679;-75
2023/08/02 00:51:55;;;;;;;5.93;3.70;;;;;;;15.59;100.00;99357.97;4996163;28;20215;-76
2023/08/02 00:54:21;;;;;;;4.33;3.30;;;;;;;15.57;100.00;99360.63;4985865;28;20201;-75
2023/08/02 00:56:48;;;;;;;4.77;3.30;;;;;;;15.52;100.00;99359.88;4987595;28;20304;-75
2023/08/02 00:59:14;;;;;;;5.73;3.60;;;;;;;15.52;100.00;99359.88;4991673;28;20201;-75
2023/08/02 01:01:41;;;;;;;6.53;3.40;;;;;;;15.50;100.00;99361.69;4990276;28;20760;-75
2023/08/02 01:04:07;;;;;;;5.47;3.07;;;;;;;15.48;100.00;99358.19;4986242;28;20225;-75
2023/08/02 01:06:48;;;;;;;7.40;3.30;;;;;;;15.48;100.00;99363.53;4990445;28;20252;-75
2023/08/02 01:09:26;;;;;;;7.20;3.60;;;;;;;15.46;100.00;99344.00;4993136;28;20201;-75
2023/08/02 01:12:06;;;;;;;6.67;3.07;;;;;;;15.49;100.00;99348.38;4995494;28;20225;-75
2023/08/02 01:14:34;;;;;;;6.73;3.33;;;;;;;15.51;100.00;99338.56;4976584;28;20227;-75
2023/08/02 01:17:13;;;;;;;4.73;3.20;;;;;;;15.52;100.00;99333.19;4974461;28;20200;-75
2023/08/02 01:19:40;;;;;;;4.77;3.00;;;;;;;15.64;100.00;99334.72;4978123;28;20201;-75
2023/08/02 01:22:06;;;;;;;6.07;3.70;;;;;;;15.76;100.00;99325.53;4990251;28;20220;-75
2023/08/02 01:24:35;;;;;;;10.40;3.40;;;;;;;15.80;100.00;99327.22;4991634;28;20270;-75
2023/08/02 01:27:19;;;;;;;7.43;3.20;;;;;;;15.72;100.00;99327.41;4991176;28;20207;-75
2023/08/02 01:29:48;;;;;;;7.37;3.40;;;;;;;15.65;100.00;99315.13;4990309;28;20208;-75
2023/08/02 01:32:16;;;;;;;5.73;2.90;;;;;;;15.60;100.00;99327.69;4986407;28;20648;-75
2023/08/02 01:34:43;;;;;;;6.00;3.20;;;;;;;15.54;100.00;99320.66;4993099;28;20211;-75
2023/08/02 01:37:10;;;;;;;6.07;3.30;;;;;;;15.74;100.00;99328.25;4988829;28;20232;-75
2023/08/02 01:39:36;;;;;;;10.87;3.50;;;;;;;15.76;100.00;99318.41;4986196;28;20284;-75
2023/08/02 01:42:03;;;;;;;5.93;3.37;;;;;;;15.80;100.00;99319.22;4984466;28;20228;-75
2023/08/02 01:44:29;;;;;;;5.20;3.37;;;;;;;15.70;100.00;99313.22;4982848;28;20227;-75
2023/08/02 01:46:55;;;;;;;6.50;3.40;;;;;;;15.76;100.00;99321.09;4983457;28;20211;-75
2023/08/02 01:49:22;;;;;;;6.37;3.37;;;;;;;15.73;100.00;99322.94;4990901;28;20223;-75
2023/08/02 01:51:48;;;;;;;7.57;3.20;;;;;;;15.64;100.00;99316.06;4997912;28;20266;-75
2023/08/02 01:54:15;;;;;;;6.50;3.10;;;;;;;15.56;100.00;99309.97;4986602;28;20709;-75
2023/08/02 01:56:41;;;;;;;5.93;3.90;;;;;;;15.51;100.00;99307.41;4986458;28;20609;-75
2023/08/02 01:59:08;;;;;;;7.03;3.10;;;;;;;15.49;100.00;99305.69;4983181;28;20205;-75
2023/08/02 02:01:34;;;;;;;6.10;3.30;;;;;;;15.49;100.00;99303.91;4973668;28;20310;-76
2023/08/02 02:04:01;;;;;;;7.07;3.10;;;;;;;15.52;100.00;99301.16;4986183;28;20251;-75
2023/08/02 02:06:27;;;;;;;5.03;3.40;;;;;;;15.49;100.00;99279.00;4988007;28;20209;-76
2023/08/02 02:08:54;;;;;;;7.93;3.40;;;;;;;15.56;100.00;99270.81;4972291;28;20245;-76
2023/08/02 02:11:20;;;;;;;6.03;3.73;;;;;;;15.69;100.00;99276.78;4988070;28;20228;-75
2023/08/02 02:13:47;;;;;;;7.47;3.10;;;;;;;15.57;100.00;99275.22;4984464;28;20214;-76
2023/08/02 02:16:13;;;;;;;5.03;3.03;;;;;;;15.50;100.00;99260.28;4990229;28;20293;-75
2023/08/02 02:18:39;;;;;;;5.83;3.27;;;;;;;15.49;100.00;99271.88;4981189;28;20215;-75
2023/08/02 02:21:06;;;;;;;9.23;3.53;;;;;;;15.48;100.00;99280.81;4986836;28;20236;-75
2023/08/02 02:23:32;;;;;;;8.83;3.50;;;;;;;15.48;100.00;99277.25;4987720;28;20225;-76
2023/08/02 02:25:59;;;;;;;6.93;3.53;;;;;;;15.48;100.00;99278.13;4977564;28;20292;-75
2023/08/02 02:28:25;;;;;;;7.27;3.47;;;;;;;15.50;100.00;99254.06;4985662;28;20263;-75
2023/08/02 02:30:52;;;;;;;6.30;2.97;;;;;;;15.60;100.00;99248.50;4977632;28;20233;-75
2023/08/02 02:33:18;;;;;;;5.13;2.87;;;;;;;15.64;100.00;99242.19;4988560;28;20208;-76
2023/08/02 02:35:44;;;;;;;5.00;3.10;;;;;;;15.68;100.00;99244.78;4994052;28;20205;-75
2023/08/02 02:38:11;;;;;;;7.00;3.27;;;;;;;15.59;100.00;99228.06;4973765;28;20239;-75
2023/08/02 02:40:37;;;;;;;4.67;2.63;;;;;;;15.61;100.00;99236.94;4992416;28;20228;-75
2023/08/02 02:43:03;;;;;;;3.93;2.50;;;;;;;15.57;100.00;99239.66;4988533;28;20208;-75
2023/08/02 02:45:30;;;;;;;5.33;3.00;;;;;;;15.61;100.00;99244.94;4992709;28;20204;-75
2023/08/02 02:47:56;;;;;;;5.53;2.87;;;;;;;15.65;100.00;99237.72;4982978;28;20223;-75
2023/08/02 02:50:23;;;;;;;5.60;2.70;;;;;;;15.81;100.00;99241.75;4990950;28;20213;-75
2023/08/02 02:52:49;;;;;;;6.90;2.73;;;;;;;15.85;100.00;99234.53;4989513;28;20677;-75
2023/08/02 02:55:16;;;;;;;3.43;2.40;;;;;;;15.91;100.00;99237.03;4988310;28;20201;-75
2023/08/02 02:57:42;;;;;;;6.43;2.60;;;;;;;15.92;100.00;99220.97;4989174;28;20201;-75
2023/08/02 03:00:09;;;;;;;6.97;2.67;;;;;;;15.93;100.00;99209.38;4992585;28;20208;-75
2023/08/02 03:02:36;;;;;;;7.13;2.37;;;;;;;15.93;100.00;99211.16;4991366;28;20216;-75
2023/08/02 03:05:03;;;;;;;5.10;2.47;;;;;;;15.96;100.00;99203.94;4987090;28;20212;-75
2023/08/02 03:07:29;;;;;;;6.27;2.47;;;;;;;15.93;100.00;99192.47;4972551;28;20716;-75
2023/08/02 03:09:55;;;;;;;5.97;2.70;;;;;;;15.93;100.00;99203.16;4974375;28;20665;-75
2023/08/02 03:12:23;;;;;;;2.50;2.00;;;;;;;15.87;100.00;99201.53;4971067;28;20369;-75
2023/08/02 03:14:49;;;;;;;3.93;2.40;;;;;;;15.83;100.00;99196.31;4993830;28;20197;-75
2023/08/02 03:17:16;;;;;;;6.00;2.17;;;;;;;15.79;100.00;99194.66;4991450;28;20287;-75
2023/08/02 03:19:42;;;;;;;4.13;2.70;;;;;;;15.77;100.00;99184.00;4994627;28;20208;-75
2023/08/02 03:22:08;;;;;;;4.23;2.50;;;;;;;15.76;100.00;99192.94;4993022;28;20264;-75
2023/08/02 03:24:35;;;;;;;5.77;3.13;;;;;;;15.71;100.00;99188.66;4986316;28;20216;-75
2023/08/02 03:27:01;;;;;;;6.87;2.73;;;;;;;15.76;100.00;99195.59;4988910;28;20568;-75
2023/08/02 03:29:28;;;;;;;7.80;2.90;;;;;;;15.85;100.00;99183.81;4996334;28;20209;-76
2023/08/02 03:31:54;;;;;;;6.40;2.53;;;;;;;15.90;100.00;99173.88;4984741;28;20345;-75
2023/08/02 03:34:20;;;;;;;5.73;2.40;;;;;;;15.94;100.00;99164.84;4990549;28;20193;-75
2023/08/02 03:36:47;;;;;;;7.70;2.63;;;;;;;15.93;100.00;99150.63;4977284;28;20196;-75
2023/08/02 03:39:13;;;;;;;3.83;2.23;;;;;;;15.97;100.00;99156.75;4976734;28;20196;-75
2023/08/02 03:41:40;;;;;;;6.17;2.70;;;;;;;16.01;100.00;99146.84;4978667;28;20704;-75
2023/08/02 03:44:06;;;;;;;6.57;2.60;;;;;;;16.03;100.00;99148.59;4991423;28;20267;-75
2023/08/02 03:46:32;;;;;;;6.43;2.40;;;;;;;15.99;100.00;99147.78;4973318;28;20592;-75
2023/08/02 03:49:00;;;;;;;4.20;2.50;;;;;;;16.03;100.00;99140.56;4984670;28;20201;-74
2023/08/02 03:51:27;;;;;;;5.87;2.60;;;;;;;16.04;100.00;99136.13;5011077;23;20239;-75
2023/08/02 03:53:53;;;;;;;3.90;2.27;;;;;;;16.11;100.00;99119.84;4988982;28;20200;-74
2023/08/02 03:56:20;;;;;;;3.83;2.37;;;;;;;16.22;100.00;99103.50;4988716;28;20292;-74
2023/08/02 03:58:46;;;;;;;4.63;2.50;;;;;;;16.26;100.00;99091.81;4988654;28;20201;-75
2023/08/02 04:01:13;;;;;;;5.33;2.60;;;;;;;16.32;100.00;99102.28;5001886;28;20228;-75
2023/08/02 04:03:39;;;;;;;8.57;2.50;;;;;;;16.34;100.00;99104.91;4991451;28;20221;-74
2023/08/02 04:06:06;;;;;;;3.97;2.30;;;;;;;16.37;100.00;99105.69;4986590;28;20259;-74
2023/08/02 04:08:33;;;;;;;5.53;2.50;;;;;;;16.41;100.00;99117.16;4986912;28;20297;-75
2023/08/02 04:11:06;;;;;;;5.60;2.90;;;;;;;16.41;100.00;99117.16;4984638;28;20267;-74
2023/08/02 04:13:33;;;;;;;5.53;2.40;;;;;;;16.43;100.00;99126.03;4989043;28;20204;-75
2023/08/02 04:15:59;;;;;;;5.67;2.43;;;;;;;16.46;100.00;99133.97;4981992;28;20237;-74
2023/08/02 04:18:26;;;;;;;3.97;2.70;;;;;;;16.43;100.00;99128.72;4988845;28;20220;-75
2023/08/02 04:20:52;;;;;;;5.50;2.70;;;;;;;16.44;100.00;99123.31;4987155;28;20208;-74
2023/08/02 04:23:18;;;;;;;5.27;2.47;;;;;;;16.42;100.00;99106.47;4989543;28;20208;-74
2023/08/02 04:25:45;;;;;;;5.23;2.80;;;;;;;16.45;100.00;99109.03;4986654;28;20689;-75
2023/08/02 04:28:11;;;;;;;4.93;2.60;;;;;;;16.43;100.00;99110.88;4990631;28;20201;-74
2023/08/02 04:30:38;;;;;;;4.50;2.60;;;;;;;16.44;100.00;99119.78;4988481;28;20212;-75
2023/08/02 04:33:05;;;;;;;5.80;2.73;;;;;;;16.42;100.00;99110.94;4986771;28;20252;-74
2023/08/02 04:35:31;;;;;;;6.47;3.10;;;;;;;16.45;100.00;99109.03;4988909;28;20197;-74
2023/08/02 04:37:58;;;;;;;4.70;2.60;;;;;;;16.45;100.00;99113.50;4986581;28;20201;-74
2023/08/02 04:40:24;;;;;;;5.63;2.70;;;;;;;16.43;100.00;99110.00;4988864;28;20201;-74
2023/08/02 04:42:50;;;;;;;5.27;2.90;;;;;;;16.42;100.00;99100.25;4988195;28;20232;-75
2023/08/02 04:45:17;;;;;;;6.23;3.17;;;;;;;16.47;100.00;99096.50;4991847;28;20221;-74
2023/08/02 04:47:43;;;;;;;3.73;2.83;;;;;;;16.49;100.00;99093.78;4994834;28;20237;-75
2023/08/02 04:50:10;;;;;;;7.13;3.30;;;;;;;16.51;100.00;99087.47;4990359;28;20585;-74
2023/08/02 04:52:36;;;;;;;4.30;2.97;;;;;;;16.59;100.00;99079.19;4986538;28;20716;-74
2023/08/02 04:55:05;;;;;;;5.37;2.90;;;;;;;16.59;100.00;99071.19;4989150;28;20284;-74
2023/08/02 04:57:31;;;;;;;6.73;3.10;;;;;;;16.59;100.00;99080.06;4988173;28;20778;-74
2023/08/02 04:59:58;;;;;;;4.57;2.60;;;;;;;16.57;100.00;99081.03;4988748;28;20287;-74
2023/08/02 05:02:33;;;;;;;5.73;3.03;;;;;;;16.57;100.00;99075.69;5000021;28;20306;-75
2023/08/02 05:05:01;;;;;;;5.80;2.90;;;;;;;16.55;100.00;99082.88;4987429;28;20402;-74
2023/08/02 05:07:34;;;;;;;5.03;2.83;;;;;;;16.55;100.00;99069.53;4985083;28;20208;-74
2023/08/02 05:10:04;;;;;;;5.63;2.73;;;;;;;16.54;100.00;99062.44;4984890;28;20209;-73
2023/08/02 05:12:37;;;;;;;5.80;2.87;;;;;;;16.50;100.00;99061.66;4986557;28;20225;-73
2023/08/02 05:15:03;;;;;;;5.00;2.87;;;;;;;16.54;100.00;99057.97;4988162;28;20197;-73
2023/08/02 05:17:30;;;;;;;4.53;3.13;;;;;;;16.47;100.00;99066.22;4984272;28;20939;-72
2023/08/02 05:19:57;;;;;;;4.27;2.67;;;;;;;16.44;100.00;99071.66;4986095;28;20210;-73
2023/08/02 05:22:24;;;;;;;4.53;2.90;;;;;;;16.40;100.00;99061.97;4985622;28;20262;-73
2023/08/02 05:24:51;;;;;;;5.10;3.43;;;;;;;16.37;100.00;99056.72;4990006;28;20220;-73
2023/08/02 05:27:17;;;;;;;5.60;2.80;;;;;;;16.38;100.00;99050.47;4984812;28;20212;-73
2023/08/02 05:29:44;;;;;;;6.33;3.30;;;;;;;16.37;100.00;99056.72;4985233;28;20685;-73
2023/08/02 05:32:10;;;;;;;8.90;2.80;;;;;;;16.34;100.00;99055.03;4986888;28;20342;-73
2023/08/02 05:34:37;;;;;;;4.47;2.90;;;;;;;16.36;100.00;99057.66;4988054;28;20580;-73
2023/08/02 05:37:04;;;;;;;5.87;2.83;;;;;;;16.35;100.00;99063.91;4989784;28;20303;-72
2023/08/02 05:39:30;;;;;;;7.47;3.13;;;;;;;16.33;100.00;99055.94;4991185;28;20203;-73
2023/08/02 05:41:56;;;;;;;4.10;2.50;;;;;;;16.34;100.00;99046.13;4988607;28;20307;-73
2023/08/02 05:44:23;;;;;;;4.97;3.07;;;;;;;16.35;100.00;99055.91;4984159;28;20559;-74
2023/08/02 05:46:49;;;;;;;7.20;2.73;;;;;;;16.37;100.00;99052.25;4990535;28;20205;-73
2023/08/02 05:49:16;;;;;;;5.50;3.47;;;;;;;16.39;100.00;99036.19;4988636;28;20204;-73
2023/08/02 05:51:43;;;;;;;6.80;3.00;;;;;;;16.43;100.00;99032.50;4988569;28;20244;-73
2023/08/02 05:54:10;;;;;;;7.70;3.40;;;;;;;16.41;100.00;99027.22;4982804;28;20200;-73
2023/08/02 05:56:36;;;;;;;3.80;2.70;;;;;;;16.37;100.00;99017.53;4985720;28;20208;-73
2023/08/02 05:59:02;;;;;;;6.13;2.97;;;;;;;16.36;100.00;98999.75;4987770;28;20200;-73
2023/08/02 06:01:29;;;;;;;5.33;3.07;;;;;;;16.41;100.00;98992.47;4988129;28;20256;-73
2023/08/02 06:03:55;;;;;;;6.80;3.50;;;;;;;16.43;100.00;98982.63;4987735;28;20205;-73
2023/08/02 06:06:22;;;;;;;5.43;2.97;;;;;;;16.48;100.00;98990.47;4991208;28;20287;-73
2023/08/02 06:08:51;;;;;;;5.37;3.07;;;;;;;16.52;100.00;98978.75;5008677;28;20247;-73
2023/08/02 06:11:17;;;;;;;5.87;3.10;;;;;;;16.48;100.00;98963.75;4993449;28;20304;-73
2023/08/02 06:13:43;;;;;;;5.50;3.13;;;;;;;16.47;100.00;98954.84;4990556;28;20602;-74
2023/08/02 06:16:10;;;;;;;6.13;2.87;;;;;;;16.53;100.00;98951.09;4991165;28;20229;-73
2023/08/02 06:18:36;;;;;;;5.67;2.93;;;;;;;16.58;100.00;98942.00;4988253;28;20209;-72
2023/08/02 06:21:03;;;;;;;7.47;2.87;;;;;;;16.62;100.00;98950.78;4986314;28;20223;-73
2023/08/02 06:23:29;;;;;;;7.20;3.30;;;;;;;16.60;100.00;98944.63;4993367;28;20244;-73
2023/08/02 06:25:55;;;;;;;5.23;2.90;;;;;;;16.57;100.00;98953.63;4995397;28;20673;-73
2023/08/02 06:28:22;;;;;;;4.87;2.90;;;;;;;16.52;100.00;98947.56;4993155;28;20201;-73
2023/08/02 06:30:48;;;;;;;3.77;2.70;;;;;;;16.45;100.00;98938.00;4989348;28;20213;-73
2023/08/02 06:33:15;;;;;;;5.40;2.80;;;;;;;16.35;100.00;98935.66;4989889;28;20201;-73
2023/08/02 06:35:41;;;;;;;4.63;3.30;;;;;;;16.31;100.00;98916.19;4991913;28;20249;-72
2023/08/02 06:38:08;;;;;;;3.50;2.30;;;;;;;16.27;100.00;98917.22;4988333;28;20293;-73
2023/08/02 06:40:34;;;;;;;6.83;3.07;;;;;;;16.21;100.00;98906.75;4991896;28;20275;-72
2023/08/02 06:43:00;;;;;;;4.57;2.70;;;;;;;16.17;100.00;98899.75;4992781;28;20222;-72
2023/08/02 06:45:27;;;;;;;6.03;3.03;;;;;;;16.15;100.00;98899.81;4983086;28;20229;-73
2023/08/02 06:47:53;;;;;;;6.40;3.07;;;;;;;16.15;100.00;98890.94;4987543;28;20201;-73
2023/08/02 06:50:20;;;;;;;8.53;3.10;;;;;;;16.16;100.00;98898.03;4988899;28;20204;-73
2023/08/02 06:52:46;;;;;;;4.40;2.70;;;;;;;16.15;100.00;98897.16;4990925;28;20622;-73
2023/08/02 06:55:12;;;;;;;4.73;2.80;;;;;;;16.16;100.00;98892.69;4988414;28;20193;-73
2023/08/02 06:57:39;;;;;;;4.53;2.87;;;;;;;16.18;100.00;98890.81;4985921;28;20200;-73
2023/08/02 07:00:06;;;;;;;4.87;3.00;;;;;;;16.32;100.00;98887.69;4992615;28;20208;-73
2023/08/02 07:02:32;;;;;;;3.97;3.10;;;;;;;16.42;100.00;98881.13;4991844;28;20307;-73
2023/08/02 07:04:59;;;;;;;5.67;2.83;;;;;;;16.50;100.00;98873.72;4986240;28;20248;-73
2023/08/02 07:07:25;;;;;;;4.30;2.97;;;;;;;16.52;100.00;98878.06;4990438;28;20557;-73
2023/08/02 07:09:51;;;;;;;4.00;3.20;;;;;;;16.56;100.00;98882.38;4993517;28;20205;-74
2023/08/02 07:12:18;;;;;;;6.67;3.80;;;;;;;16.66;100.00;98877.59;4991669;28;22059;-72
2023/08/02 07:14:44;;;;;;;4.50;4.00;;;;;;;16.69;100.00;98868.59;4987012;28;20581;-73
2023/08/02 07:17:11;;;;;;;5.67;3.90;;;;;;;16.80;100.00;98851.25;4990004;28;20228;-72
2023/08/02 07:19:37;;;;;;;5.93;4.20;;;;;;;16.93;100.00;98841.00;4989360;28;20217;-73
2023/08/02 07:22:04;;;;;;;4.77;4.00;;;;;;;17.10;100.00;98854.59;4987231;28;20227;-72
2023/08/02 07:24:31;;;;;;;5.20;4.30;;;;;;;17.25;100.00;98858.50;4990333;28;20649;-73
2023/08/02 07:26:57;;;;;;;6.73;4.17;;;;;;;17.29;100.00;98852.09;4990584;28;20219;-71
2023/08/02 07:29:24;;;;;;;5.03;4.00;;;;;;;17.33;100.00;98845.69;4986574;28;20264;-72
2023/08/02 07:31:50;;;;;;;5.90;3.70;;;;;;;17.42;100.00;98845.34;4991093;28;20311;-70
2023/08/02 07:34:16;;;;;;;4.30;3.30;;;;;;;17.53;100.00;98836.88;4985340;28;20213;-72
2023/08/02 07:36:43;;;;;;;4.77;3.13;;;;;;;17.42;100.00;98831.09;4989817;28;20211;-73
2023/08/02 07:39:09;;;;;;;7.63;3.60;;;;;;;17.33;100.00;98837.66;4987707;28;21500;-73
2023/08/02 07:41:36;;;;;;;6.27;3.30;;;;;;;17.31;100.00;98828.84;4983885;28;20319;-73
2023/08/02 07:44:02;;;;;;;4.60;2.83;;;;;;;17.38;100.00;98824.97;4988687;28;20555;-73
2023/08/02 07:46:28;;;;;;;4.70;3.00;;;;;;;17.41;100.00;98827.53;4992078;28;20257;-73
2023/08/02 07:48:56;;;;;;;3.33;2.60;;;;;;;17.42;100.00;98825.72;5005396;28;20213;-73
2023/08/02 07:51:22;;;;;;;2.87;2.50;;;;;;;17.42;100.00;98817.69;4989909;28;20225;-73
2023/08/02 07:53:49;;;;;;;4.13;2.60;;;;;;;17.37;100.00;98815.22;4988520;28;20210;-72
2023/08/02 07:56:16;;;;;;;4.77;2.27;;;;;;;17.43;100.00;98808.72;4985052;28;20220;-72
2023/08/02 07:58:42;;;;;;;3.43;2.40;;;;;;;17.55;100.00;98803.75;4989388;28;20209;-72
2023/08/02 08:01:09;;;;;;;2.97;2.07;;;;;;;17.54;100.00;98801.13;4992656;28;20227;-72
2023/08/02 08:03:37;;;;;;;3.57;2.13;;;;;;;17.47;100.00;98796.97;4990886;28;20445;-73
2023/08/02 08:06:14;;;;;;;2.97;2.40;;;;;;;17.44;100.00;98799.78;4988998;28;20251;-72
2023/08/02 08:08:42;;;;;;;3.50;2.30;;;;;;;17.44;100.00;98781.91;4991008;28;20196;-73
2023/08/02 08:11:09;;;;;;;3.03;1.93;;;;;;;17.42;100.00;98783.78;5002186;28;20728;-73
2023/08/02 08:13:35;;;;;;;3.43;2.10;;;;;;;17.29;100.00;98785.22;4990250;28;20649;-73
2023/08/02 08:16:02;;;;;;;3.37;2.20;;;;;;;17.18;100.00;98788.28;4990689;28;20201;-73
2023/08/02 08:18:31;;;;;;;2.87;2.17;;;;;;;17.09;100.00;98779.75;4987365;28;20209;-72
2023/08/02 08:20:58;;;;;;;3.07;2.07;;;;;;;17.11;100.00;98780.56;5000572;28;20288;-74
2023/08/02 08:23:25;;;;;;;4.03;2.50;;;;;;;17.16;100.00;98786.59;4991074;28;20284;-73
2023/08/02 08:25:52;;;;;;;2.87;2.20;;;;;;;17.15;100.00;98769.69;4988343;28;20713;-73
2023/08/02 08:28:18;;;;;;;4.27;2.40;;;;;;;17.20;100.00;98761.47;4989739;28;20197;-72
2023/08/02 08:30:44;;;;;;;2.20;2.00;;;;;;;17.22;100.00;98759.63;4989321;28;20220;-73
2023/08/02 08:33:11;;;;;;;2.87;2.47;;;;;;;17.24;100.00;98760.44;4991063;28;20284;-72
2023/08/02 08:35:37;;;;;;;3.07;2.00;;;;;;;17.18;100.00;98755.31;4990820;28;20201;-73
2023/08/02 08:38:04;;;;;;;3.00;2.00;;;;;;;17.11;100.00;98748.47;4987024;28;20307;-72
2023/08/02 08:40:32;;;;;;;3.30;2.10;;;;;;;17.10;100.00;98746.72;4991319;28;20283;-72
2023/08/02 08:42:58;;;;;;;3.63;2.53;;;;;;;17.01;100.00;98744.41;4990279;28;20307;-72
2023/08/02 08:45:25;;;;;;;3.07;2.20;;;;;;;17.00;100.00;98746.22;4989751;28;20217;-72
2023/08/02 08:47:52;;;;;;;3.17;2.33;;;;;;;17.07;100.00;98741.50;4989889;28;20211;-73
2023/08/02 08:50:21;;;;;;;3.70;2.40;;;;;;;17.07;100.00;98730.78;4990588;28;20205;-73
2023/08/02 08:52:51;;;;;;;4.07;2.23;;;;;;;17.12;100.00;98728.81;4989653;28;20236;-73
2023/08/02 08:55:18;;;;;;;3.57;2.30;;;;;;;17.18;100.00;98720.53;4989707;28;20251;-72
2023/08/02 08:57:45;;;;;;;3.87;2.47;;;;;;;17.19;100.00;98715.13;4986984;28;20692;-72
2023/08/02 09:00:13;;;;;;;2.23;1.87;;;;;;;17.21;100.00;98715.97;4989406;28;20495;-72
2023/08/02 09:02:41;;;;;;;3.93;2.60;;;;;;;17.12;100.00;98708.28;4986947;28;20275;-73
2023/08/02 09:05:08;;;;;;;4.30;3.03;;;;;;;17.10;100.00;98717.28;4987696;28;20750;-73
2023/08/02 09:07:35;;;;;;;4.40;2.70;;;;;;;17.09;100.00;98705.72;4980425;28;20236;-72
2023/08/02 09:10:01;;;;;;;3.13;2.37;;;;;;;17.10;100.00;98693.22;4984837;28;20680;-72
2023/08/02 09:12:29;;;;;;;4.97;2.93;;;;;;;17.05;100.00;98685.38;4981366;28;20229;-72
2023/08/02 09:15:00;;;;;;;3.63;2.40;;;;;;;17.06;100.00;98684.44;4986356;28;20259;-72
2023/08/02 09:17:27;;;;;;;4.67;2.50;;;;;;;17.12;100.00;98686.88;4979861;28;20208;-72
2023/08/02 09:20:07;;;;;;;3.87;2.43;;;;;;;17.20;100.00;98683.88;4990264;28;20259;-72
2023/08/02 09:22:34;;;;;;;4.77;2.40;;;;;;;17.27;100.00;98684.53;4987795;28;20689;-71
2023/08/02 09:25:03;;;;;;;4.10;2.37;;;;;;;17.33;100.00;98677.13;4992452;28;20220;-72
2023/08/02 09:27:30;;;;;;;4.13;1.90;;;;;;;17.43;100.00;98680.28;4981903;28;20291;-73
2023/08/02 09:29:56;;;;;;;2.93;1.80;;;;;;;17.42;100.00;98673.19;4988022;28;20255;-73
2023/08/02 09:32:24;;;;;;;2.07;1.90;;;;;;;17.50;100.00;98665.69;4987617;28;20225;-72
2023/08/02 09:34:54;;;;;;;2.13;1.67;;;;;;;17.54;100.00;98664.63;4990002;28;20201;-74
2023/08/02 09:37:31;;;;;;;2.70;1.70;;;;;;;17.62;100.00;98661.66;4994719;28;20197;-72
2023/08/02 09:39:58;;;;;;;2.60;1.97;;;;;;;17.75;100.00;98646.81;4994218;28;20331;-73
2023/08/02 09:42:26;;;;;;;2.30;1.70;;;;;;;17.85;100.00;98649.00;4986813;28;20225;-72
2023/08/02 09:45:00;;;;;;;3.57;1.90;;;;;;;17.90;100.00;98646.13;4989495;28;20661;-72
2023/08/02 09:47:28;;;;;;;2.63;1.90;;;;;;;18.08;100.00;98649.81;4985656;28;20208;-73
2023/08/02 09:50:02;;;;;;;3.10;2.10;;;;;;;18.10;100.00;98632.72;4992531;28;20590;-72
2023/08/02 09:52:28;;;;;;;2.27;1.40;;;;;;;18.14;100.00;98620.06;5011029;23;20224;-70
2023/08/02 09:54:54;;;;;;;2.20;1.70;;;;;;;18.35;100.00;98629.78;4987078;28;20212;-70
2023/08/02 09:57:26;;;;;;;2.73;1.70;;;;;;;18.40;100.00;98630.44;4984771;28;20211;-69
2023/08/02 09:59:54;;;;;;;2.15;1.55;;;;;;;18.46;100.00;98623.94;4984797;28;20291;-73
2023/08/02 10:02:25;;;;;;;3.50;1.90;;;;;;;18.56;100.00;98629.72;4986320;28;20235;-71
2023/08/02 10:04:59;;;;;;;2.10;1.57;;;;;;;18.55;100.00;98603.88;4986098;28;20259;-71
2023/08/02 10:07:34;;;;;;;1.35;1.25;;;;;;;18.63;100.00;98601.72;4988289;28;20283;-73
2023/08/02 10:10:13;;;;;;;2.65;1.38;;;;;;;18.69;100.00;98590.69;4985265;28;20200;-71
2023/08/02 10:12:40;;;;;;;2.17;1.40;;;;;;;18.84;100.00;98589.97;4982470;28;20551;-73
2023/08/02 10:15:07;;;;;;;2.35;1.30;;;;;;;18.97;100.00;98587.53;4986485;28;20755;-72
2023/08/02 10:17:34;;;;;;;2.13;1.30;;;;;;;18.95;100.00;98581.38;4989662;28;20208;-72
2023/08/02 10:20:02;;;;;;;1.90;1.33;;;;;;;18.86;100.00;98577.34;4987194;28;20299;-72
2023/08/02 10:22:30;;;;;;;1.85;1.35;;;;;;;19.06;100.00;98577.22;4985099;28;20295;-75
2023/08/02 10:24:56;;;;;;;2.08;1.25;;;;;;;19.26;100.00;98570.84;4987478;28;20205;-74
2023/08/02 10:27:24;;;;;;;1.65;1.27;;;;;;;19.38;100.00;98570.22;4986961;28;20267;-73
2023/08/02 10:29:52;;;;;;;2.03;1.33;;;;;;;19.46;100.00;98569.81;4985900;28;20205;-74
2023/08/02 10:32:22;;;;;;;1.30;1.20;;;;;;;19.54;100.00;98564.06;4986935;28;20315;-74
2023/08/02 10:34:51;;;;;;;1.35;1.10;;;;;;;19.67;100.00;98560.69;4988609;28;20206;-73
2023/08/02 10:37:19;;;;;;;1.50;1.20;;;;;;;19.70;100.00;98554.28;4971487;28;20282;-74
2023/08/02 10:39:45;;;;;;;3.47;1.33;;;;;;;19.87;100.00;98556.06;4986019;28;20209;-73
2023/08/02 10:42:21;;;;;;;1.67;1.33;;;;;;;19.84;100.00;98553.53;4969449;28;20225;-73
2023/08/02 10:44:53;;;;;;;1.90;1.42;;;;;;;19.80;100.00;98552.84;4989746;28;20223;-72
2023/08/02 10:47:28;;;;;;;1.83;1.30;;;;;;;19.78;100.00;98543.13;4971223;28;20243;-75
2023/08/02 10:49:56;;;;;;;1.20;1.05;;;;;;;19.77;100.00;98539.56;4976054;28;20609;-74
2023/08/02 10:52:25;;;;;;;1.60;1.30;;;;;;;19.84;100.00;98538.28;4987848;28;20300;-73
2023/08/02 10:55:11;;;;;;;1.58;1.15;;;;;;;19.88;100.00;98534.47;4987939;28;20224;-74
2023/08/02 10:57:40;;;;;;;2.65;1.27;;;;;;;19.92;100.00;98533.34;4989351;28;20255;-73
2023/08/02 11:00:17;;;;;;;2.72;1.10;;;;;;;19.92;100.00;98521.75;4982727;28;20212;-72
2023/08/02 11:02:48;;;;;;;1.80;1.50;;;;;;;19.99;100.00;98513.25;4991986;28;20224;-72
2023/08/02 11:05:19;;;;;;;2.40;1.23;;;;;;;20.11;100.00;98502.81;4990608;28;20201;-72
2023/08/02 11:08:01;;;;;;;1.85;1.27;;;;;;;20.23;100.00;98505.66;4990765;28;20205;-73
2023/08/02 11:10:28;;;;;;;2.55;1.30;;;;;;;20.38;100.00;98503.06;4991337;28;20209;-73
2023/08/02 11:12:55;;;;;;;1.55;1.05;;;;;;;20.47;100.00;98492.72;4990973;28;20248;-75
2023/08/02 11:15:22;;;;;;;1.10;0.90;;;;;;;20.48;100.00;98498.94;4991245;28;20586;-73
2023/08/02 11:17:55;;;;;;;1.48;1.10;;;;;;;20.24;100.00;98493.09;4989350;28;20445;-73
2023/08/02 11:20:26;;;;;;;1.00;0.90;;;;;;;20.11;100.00;98501.00;4991744;28;20204;-72
2023/08/02 11:22:54;;;;;;;1.20;1.00;;;;;;;20.18;100.00;98505.06;4974044;28;20220;-75
2023/08/02 11:25:21;;;;;;;2.28;0.98;;;;;;;20.40;100.00;98490.44;4989065;28;20240;-72